Time;durP1;ratioP1;P1;durP2;ratioP2;P2;SDS_P1;SDS_P2;PMS_P1;PMS_P2;Temp;Humidity;BMP_temperature;BMP_pressure;BME280_temperature;BME280_humidity;BME280_pressure;Samples;Min_cycle;Max_cycle;Signal;HPM_P1;HPM_P2
2022/10/31 00:00:54;;;;;;;;;;;;;;;20.31;48.82;99751.25;4451732;32;35148;-86
2022/10/31 00:03:22;;;;;;;;;;;;;;;20.69;47.87;99753.22;4451311;32;34234;-87
2022/10/31 00:05:49;;;;;;;;;;;;;;;20.71;47.80;99743.50;4451694;32;34057;-83
2022/10/31 00:08:17;;;;;;;;;;;;;;;20.69;47.73;99753.22;4464900;32;34438;-85
2022/10/31 00:10:44;;;;;;;;;;;;;;;20.70;47.87;99752.31;4462372;32;33831;-86
2022/10/31 00:13:12;;;;;;;;;;;;;;;20.57;47.90;99758.69;4451393;32;34065;-86
2022/10/31 00:15:40;;;;;;;;;;;;;;;20.92;47.11;99751.91;4451570;32;34093;-86
2022/10/31 00:18:08;;;;;;;;;;;;;;;20.91;47.10;99751.03;4463399;32;34147;-86
2022/10/31 00:20:35;;;;;;;;;;;;;;;21.07;46.89;99754.22;4467158;32;34326;-86
2022/10/31 00:23:03;;;;;;;;;;;;;;;20.82;47.35;99754.69;4466809;32;33353;-85
2022/10/31 00:25:32;;;;;;;;;;;;;;;20.11;48.76;99755.06;4463029;32;35321;-86
2022/10/31 00:28:00;;;;;;;;;;;;;;;20.39;48.18;99742.31;4452763;32;34383;-86
2022/10/31 00:30:28;;;;;;;;;;;;;;;19.64;49.82;99751.44;4451366;32;34345;-86
2022/10/31 00:32:55;;;;;;;;;;;;;;;20.11;49.03;99748.94;4450822;32;33521;-86
2022/10/31 00:35:23;;;;;;;;;;;;;;;20.32;48.58;99734.56;4451223;32;33980;-86
2022/10/31 00:37:51;;;;;;;;;;;;;;;20.38;48.47;99732.69;4461403;32;34097;-86
2022/10/31 00:40:19;;;;;;;;;;;;;;;20.69;47.82;99728.63;4460583;32;33774;-86
2022/10/31 00:42:46;;;;;;;;;;;;;;;20.32;48.48;99731.91;4457774;32;33134;-86
2022/10/31 00:45:13;;;;;;;;;;;;;;;19.97;49.56;99735.16;4466711;32;33367;-86
2022/10/31 00:47:41;;;;;;;;;;;;;;;20.30;48.94;99733.69;4458616;32;35259;-85
2022/10/31 00:50:08;;;;;;;;;;;;;;;20.50;48.42;99733.38;4466647;32;34068;-87
2022/10/31 00:52:37;;;;;;;;;;;;;;;19.88;49.59;99726.50;4466537;32;33414;-86
2022/10/31 00:55:04;;;;;;;;;;;;;;;20.35;48.62;99724.84;4455104;32;34921;-85
2022/10/31 00:57:31;;;;;;;;;;;;;;;20.39;48.61;99723.88;4450845;32;33853;-85
2022/10/31 00:59:59;;;;;;;;;;;;;;;19.78;49.65;99729.31;4450973;32;34148;-86
2022/10/31 01:02:28;;;;;;;;;;;;;;;20.61;47.87;99732.28;4450530;32;33812;-86
2022/10/31 01:04:55;;;;;;;;;;;;;;;20.72;47.55;99718.00;4460420;32;35036;-86
2022/10/31 01:07:22;;;;;;;;;;;;;;;20.61;47.72;99724.38;4466408;32;33835;-86
2022/10/31 01:09:50;;;;;;;;;;;;;;;20.51;48.14;99722.81;4460406;32;34046;-86
2022/10/31 01:12:18;;;;;;;;;;;;;;;20.63;47.77;99733.09;4453169;32;33699;-86
2022/10/31 01:14:45;;;;;;;;;;;;;;;20.70;47.50;99720.69;4460975;32;34510;-86
2022/10/31 01:17:13;;;;;;;;;;;;;;;20.79;47.38;99719.63;4467840;32;34869;-86
2022/10/31 01:19:40;;;;;;;;;;;;;;;20.58;47.78;99726.19;4452977;32;33557;-86
2022/10/31 01:22:07;;;;;;;;;;;;;;;20.71;47.31;99722.41;4452768;32;33496;-83
2022/10/31 01:24:35;;;;;;;;;;;;;;;20.28;48.16;99722.34;4452604;32;34013;-86
2022/10/31 01:27:02;;;;;;;;;;;;;;;19.43;50.64;99726.31;4452776;32;34168;-86
2022/10/31 01:29:31;;;;;;;;;;;;;;;20.42;48.11;99715.06;4453046;32;33465;-86
2022/10/31 01:31:59;;;;;;;;;;;;;;;20.71;47.52;99719.78;4452617;32;33175;-86
2022/10/31 01:34:26;;;;;;;;;;;;;;;21.05;46.78;99716.47;4458275;32;34230;-86
2022/10/31 01:36:54;;;;;;;;;;;;;;;20.85;47.21;99712.47;4468001;32;34289;-86
2022/10/31 01:39:22;;;;;;;;;;;;;;;20.89;47.13;99718.56;4458957;32;34024;-87
2022/10/31 01:41:50;;;;;;;;;;;;;;;20.64;47.67;99719.03;4452850;32;32777;-86
2022/10/31 01:44:17;;;;;;;;;;;;;;;20.88;47.17;99712.41;4456311;32;33799;-87
2022/10/31 01:47:03;;;;;;;;;;;;;;;21.00;46.70;99711.28;4468227;32;34022;-85
2022/10/31 01:49:32;;;;;;;;;;;;;;;20.78;47.33;99710.84;4454096;32;34428;-86
2022/10/31 01:52:15;;;;;;;;;;;;;;;20.85;47.00;99712.47;4445045;32;34035;-86
2022/10/31 01:54:45;;;;;;;;;;;;;;;21.05;46.55;99706.78;4445893;32;33799;-86
2022/10/31 01:57:12;;;;;;;;;;;;;;;21.07;46.21;99717.31;4435592;32;35104;-86
2022/10/31 01:59:40;;;;;;;;;;;;;;;19.57;50.03;99714.69;4435846;32;34110;-86
2022/10/31 02:02:07;;;;;;;;;;;;;;;19.35;50.70;99709.72;4435732;32;33439;-87
2022/10/31 02:04:35;;;;;;;;;;;;;;;20.01;48.96;99711.37;4441812;32;33863;-87
2022/10/31 02:07:07;;;;;;;;;;;;;;;19.72;49.64;99709.22;4450897;32;34391;-84
2022/10/31 02:09:34;;;;;;;;;;;;;;;19.92;49.00;99707.12;4450920;32;34114;-86
2022/10/31 02:12:02;;;;;;;;;;;;;;;20.13;48.58;99702.41;4452512;32;33616;-86
2022/10/31 02:14:29;;;;;;;;;;;;;;;20.29;48.12;99703.87;4447722;32;34319;-86
2022/10/31 02:16:57;;;;;;;;;;;;;;;20.12;48.36;99709.44;4443976;32;35242;-86
2022/10/31 02:19:27;;;;;;;;;;;;;;;20.05;48.89;99702.53;4452696;32;34951;-86
2022/10/31 02:22:13;;;;;;;;;;;;;;;19.74;49.29;99702.19;4451220;32;32986;-86
2022/10/31 02:24:50;;;;;;;;;;;;;;;20.05;48.62;99699.06;4446952;32;34955;-86
2022/10/31 02:27:33;;;;;;;;;;;;;;;20.06;48.62;99703.41;4437124;32;35146;-86
2022/10/31 02:30:11;;;;;;;;;;;;;;;19.98;48.76;99695.66;4436813;32;35187;-87
2022/10/31 02:32:59;;;;;;;;;;;;;;;19.29;50.08;99703.72;4441455;32;33609;-85
2022/10/31 02:35:34;;;;;;;;;;;;;;;19.59;49.40;99698.00;4452431;32;34876;-85
2022/10/31 02:38:19;;;;;;;;;;;;;;;19.94;48.64;99704.50;4466138;32;33795;-86
2022/10/31 02:40:48;;;;;;;;;;;;;;;20.14;48.26;99706.78;4468054;32;35072;-85
2022/10/31 02:43:20;;;;;;;;;;;;;;;20.20;48.09;99704.03;4457232;32;33961;-86
2022/10/31 02:46:05;;;;;;;;;;;;;;;20.39;47.65;99713.34;4450652;32;33288;-85
2022/10/31 02:48:35;;;;;;;;;;;;;;;20.45;47.50;99708.84;4435384;32;34065;-85
2022/10/31 02:51:02;;;;;;;;;;;;;;;19.79;48.97;99710.87;4443494;32;34167;-86
2022/10/31 02:53:33;;;;;;;;;;;;;;;18.90;51.40;99717.38;4450873;32;33627;-84
2022/10/31 02:56:05;;;;;;;;;;;;;;;19.89;48.83;99715.09;4451834;32;33964;-86
2022/10/31 02:58:34;;;;;;;;;;;;;;;19.86;49.05;99717.78;4450854;32;34477;-86
2022/10/31 03:01:21;;;;;;;;;;;;;;;19.97;48.69;99719.37;4446713;32;34384;-86
2022/10/31 03:03:52;;;;;;;;;;;;;;;19.59;49.61;99712.94;4436735;32;33529;-86
2022/10/31 03:06:24;;;;;;;;;;;;;;;19.28;50.16;99713.38;4435790;32;34015;-86
2022/10/31 03:08:56;;;;;;;;;;;;;;;19.39;50.01;99716.69;4437707;32;33927;-84
2022/10/31 03:11:24;;;;;;;;;;;;;;;19.62;49.21;99710.25;4449475;32;34223;-86
2022/10/31 03:13:54;;;;;;;;;;;;;;;19.72;49.18;99708.34;4450856;32;34319;-86
2022/10/31 03:16:22;;;;;;;;;;;;;;;18.80;51.56;99707.84;4445656;32;34210;-86
2022/10/31 03:18:50;;;;;;;;;;;;;;;19.36;50.22;99708.88;4436523;32;34781;-86
2022/10/31 03:21:22;;;;;;;;;;;;;;;19.49;49.82;99719.19;4450266;32;33754;-86
2022/10/31 03:23:51;;;;;;;;;;;;;;;19.79;49.11;99718.75;4456218;32;33760;-86
2022/10/31 03:26:19;;;;;;;;;;;;;;;19.80;49.14;99719.63;4466333;32;34171;-87
2022/10/31 03:28:49;;;;;;;;;;;;;;;19.63;48.94;99720.78;4453811;32;33729;-86
2022/10/31 03:31:16;;;;;;;;;;;;;;;20.02;48.10;99726.28;4451782;32;34124;-86
2022/10/31 03:33:44;;;;;;;;;;;;;;;19.19;49.76;99724.84;4450457;32;33464;-86
2022/10/31 03:36:11;;;;;;;;;;;;;;;19.76;48.94;99723.19;4450517;32;33675;-87
2022/10/31 03:38:39;;;;;;;;;;;;;;;19.71;49.13;99731.19;4445085;32;34948;-86
2022/10/31 03:41:07;;;;;;;;;;;;;;;20.07;48.31;99731.47;4450333;32;34342;-86
2022/10/31 03:43:36;;;;;;;;;;;;;;;20.07;48.29;99728.81;4450533;32;33016;-87
2022/10/31 03:46:03;;;;;;;;;;;;;;;20.18;47.89;99724.25;4448084;32;34848;-86
2022/10/31 03:48:31;;;;;;;;;;;;;;;20.02;48.13;99722.78;4447217;32;34102;-84
2022/10/31 03:50:58;;;;;;;;;;;;;;;19.37;49.55;99725.50;4453293;32;34300;-86
2022/10/31 03:53:47;;;;;;;;;;;;;;;19.50;49.28;99723.56;4474187;32;34204;-86
2022/10/31 03:56:22;;;;;;;;;;;;;;;20.10;47.97;99734.03;4453439;32;34912;-87
2022/10/31 03:58:55;;;;;;;;;;;;;;;20.08;48.08;99730.59;4453387;32;34327;-86
2022/10/31 04:01:23;;;;;;;;;;;;;;;20.45;47.29;99729.91;4444184;32;35058;-86
2022/10/31 04:03:50;;;;;;;;;;;;;;;19.84;48.50;99732.69;4462575;32;33900;-87
2022/10/31 04:06:18;;;;;;;;;;;;;;;18.60;51.60;99747.44;4453079;32;33851;-86
2022/10/31 04:08:46;;;;;;;;;;;;;;;19.14;50.01;99737.19;4453253;32;35219;-86
2022/10/31 04:11:14;;;;;;;;;;;;;;;19.29;49.63;99737.91;4459399;32;34941;-86
2022/10/31 04:13:41;;;;;;;;;;;;;;;19.74;48.79;99743.41;4437690;32;33683;-86
2022/10/31 04:16:09;;;;;;;;;;;;;;;18.14;52.79;99749.63;4437459;32;34205;-85
2022/10/31 04:18:43;;;;;;;;;;;;;;;18.76;51.21;99750.81;4438319;32;34375;-86
2022/10/31 04:21:10;;;;;;;;;;;;;;;19.20;50.26;99745.00;4455947;32;34328;-86
2022/10/31 04:23:37;;;;;;;;;;;;;;;18.65;51.53;99747.41;4454820;32;33924;-85
2022/10/31 04:26:07;;;;;;;;;;;;;;;18.67;51.34;99748.22;4451335;32;34081;-85
2022/10/31 04:28:34;;;;;;;;;;;;;;;17.56;54.49;99755.28;4437086;32;34440;-87
2022/10/31 04:31:02;;;;;;;;;;;;;;;16.86;56.37;99752.13;4455255;32;34423;-86
2022/10/31 04:33:29;;;;;;;;;;;;;;;17.83;53.91;99760.34;4466837;32;34417;-84
2022/10/31 04:35:56;;;;;;;;;;;;;;;19.18;50.31;99743.28;4466531;32;33771;-84
2022/10/31 04:38:23;;;;;;;;;;;;;;;19.50;49.59;99760.38;4459820;32;34388;-86
2022/10/31 04:40:52;;;;;;;;;;;;;;;19.71;49.21;99749.59;4466763;32;35015;-86
2022/10/31 04:43:20;;;;;;;;;;;;;;;19.37;49.96;99759.69;4466922;32;33223;-86
2022/10/31 04:45:47;;;;;;;;;;;;;;;17.58;54.20;99769.22;4468834;32;33530;-85
2022/10/31 04:48:14;;;;;;;;;;;;;;;18.63;51.30;99771.03;4467261;32;33752;-86
2022/10/31 04:50:42;;;;;;;;;;;;;;;18.64;51.49;99766.66;4453328;32;34252;-85
2022/10/31 04:53:09;;;;;;;;;;;;;;;18.94;50.68;99763.72;4479806;32;33660;-85
2022/10/31 04:55:37;;;;;;;;;;;;;;;18.87;50.95;99764.69;4484225;32;34102;-85
2022/10/31 04:58:08;;;;;;;;;;;;;;;19.36;49.84;99753.56;4472162;32;34935;-87
2022/10/31 05:00:36;;;;;;;;;;;;;;;19.48;49.52;99755.16;4468810;32;34626;-85
2022/10/31 05:03:04;;;;;;;;;;;;;;;19.85;48.54;99760.78;4468491;32;33635;-86
2022/10/31 05:05:31;;;;;;;;;;;;;;;19.87;48.57;99760.75;4468618;32;34938;-87
2022/10/31 05:07:59;;;;;;;;;;;;;;;20.17;48.05;99762.88;4455847;32;34404;-85
2022/10/31 05:10:28;;;;;;;;;;;;;;;20.26;48.01;99763.59;4452634;32;34480;-87
2022/10/31 05:12:58;;;;;;;;;;;;;;;20.16;47.83;99770.81;4453107;32;33384;-87
2022/10/31 05:15:28;;;;;;;;;;;;;;;19.75;48.86;99763.56;4452941;32;34834;-86
2022/10/31 05:17:59;;;;;;;;;;;;;;;20.13;47.91;99763.81;4462293;32;33429;-87
2022/10/31 05:20:29;;;;;;;;;;;;;;;20.42;47.40;99765.97;4468682;32;35040;-86
2022/10/31 05:22:58;;;;;;;;;;;;;;;20.10;47.99;99761.22;4473608;32;33539;-87
2022/10/31 05:25:26;;;;;;;;;;;;;;;19.93;48.38;99760.66;4484019;32;34166;-86
2022/10/31 05:27:54;;;;;;;;;;;;;;;20.15;47.62;99756.78;4462807;32;34843;-87
2022/10/31 05:30:23;;;;;;;;;;;;;;;19.53;48.93;99753.31;4467567;32;34722;-85
2022/10/31 05:32:50;;;;;;;;;;;;;;;19.18;50.21;99764.31;4484180;32;34298;-86
2022/10/31 05:35:27;;;;;;;;;;;;;;;19.03;50.94;99769.75;4483906;32;32781;-86
2022/10/31 05:37:57;;;;;;;;;;;;;;;19.25;50.18;99767.75;4473959;32;34000;-87
2022/10/31 05:40:25;;;;;;;;;;;;;;;19.69;49.30;99757.47;4468519;32;34290;-87
2022/10/31 05:42:53;;;;;;;;;;;;;;;18.98;50.78;99755.78;4468558;32;33412;-86
2022/10/31 05:45:21;;;;;;;;;;;;;;;19.19;50.45;99761.66;4477707;32;33937;-86
2022/10/31 05:47:56;;;;;;;;;;;;;;;19.24;50.12;99764.22;4477046;32;35138;-86
2022/10/31 05:50:27;;;;;;;;;;;;;;;18.88;51.13;99781.31;4467856;32;34112;-86
2022/10/31 05:52:59;;;;;;;;;;;;;;;18.79;51.67;99777.03;4467821;32;33436;-87
2022/10/31 05:55:27;;;;;;;;;;;;;;;19.36;50.00;99773.75;4467463;32;33183;-86
2022/10/31 05:57:56;;;;;;;;;;;;;;;19.15;50.65;99780.13;4459609;32;33770;-86
2022/10/31 06:00:24;;;;;;;;;;;;;;;19.21;50.61;99782.69;4452501;32;34918;-86
2022/10/31 06:03:17;;;;;;;;;;;;;;;18.48;52.41;99784.31;4452573;32;34306;-86
2022/10/31 06:05:45;;;;;;;;;;;;;;;18.90;51.68;99784.78;4451998;32;34221;-86
2022/10/31 06:08:20;;;;;;;;;;;;;;;19.48;50.11;99789.34;4468256;32;34415;-87
2022/10/31 06:10:48;;;;;;;;;;;;;;;19.42;50.40;99776.25;4482157;32;34429;-87
2022/10/31 06:13:17;;;;;;;;;;;;;;;18.75;51.94;99795.47;4464049;32;33199;-87
2022/10/31 06:15:44;;;;;;;;;;;;;;;19.50;50.09;99787.53;4452936;32;33661;-86
2022/10/31 06:18:12;;;;;;;;;;;;;;;19.38;50.58;99783.31;4470172;32;34916;-87
2022/10/31 06:20:43;;;;;;;;;;;;;;;18.27;53.08;99788.00;4467571;32;35097;-86
2022/10/31 06:23:10;;;;;;;;;;;;;;;18.96;51.50;99798.72;4467948;32;34035;-86
2022/10/31 06:25:38;;;;;;;;;;;;;;;19.56;50.01;99781.34;4468047;32;34242;-86
2022/10/31 06:28:05;;;;;;;;;;;;;;;20.01;48.92;99789.47;4468090;32;34130;-85
2022/10/31 06:30:33;;;;;;;;;;;;;;;19.73;49.27;99792.50;4463470;32;34522;-86
2022/10/31 06:33:01;;;;;;;;;;;;;;;19.83;48.98;99786.22;4452520;32;33346;-87
2022/10/31 06:35:29;;;;;;;;;;;;;;;19.60;49.46;99778.66;4482909;32;34178;-85
2022/10/31 06:37:56;;;;;;;;;;;;;;;19.71;49.26;99790.81;4468665;32;34233;-85
2022/10/31 06:40:26;;;;;;;;;;;;;;;19.71;49.21;99781.16;4468124;32;34478;-86
2022/10/31 06:42:59;;;;;;;;;;;;;;;19.77;49.12;99775.78;4482750;32;31941;-87
2022/10/31 06:45:27;;;;;;;;;;;;;;;19.60;49.51;99788.28;4472563;32;34644;-85
2022/10/31 06:47:57;;;;;;;;;;;;;;;20.07;48.54;99786.72;4457229;32;34380;-86
2022/10/31 06:50:49;;;;;;;;;;;;;;;18.54;51.77;99792.12;4467612;32;34596;-86
2022/10/31 06:53:16;;;;;;;;;;;;;;;18.83;51.33;99805.03;4467991;32;32937;-86
2022/10/31 06:55:43;;;;;;;;;;;;;;;18.44;52.52;99814.97;4463438;32;34029;-86
2022/10/31 06:58:12;;;;;;;;;;;;;;;19.34;50.52;99807.06;4467836;32;34287;-86
2022/10/31 07:00:39;;;;;;;;;;;;;;;19.09;50.98;99817.87;4468785;32;34106;-86
2022/10/31 07:03:09;;;;;;;;;;;;;;;19.01;50.93;99816.19;4459168;32;33423;-85
2022/10/31 07:05:37;;;;;;;;;;;;;;;18.41;52.66;99815.03;4451667;32;34238;-86
2022/10/31 07:08:06;;;;;;;;;;;;;;;17.28;55.51;99823.56;4451633;32;34271;-87
2022/10/31 07:10:33;;;;;;;;;;;;;;;18.36;52.94;99822.03;4452131;32;33888;-87
2022/10/31 07:13:11;;;;;;;;;;;;;;;18.43;52.70;99826.37;4460248;32;32881;-87
2022/10/31 07:15:39;;;;;;;;;;;;;;;18.77;51.89;99828.72;4482590;32;34911;-87
2022/10/31 07:18:08;;;;;;;;;;;;;;;19.10;51.24;99824.00;4475997;31;34090;-85
2022/10/31 07:20:35;;;;;;;;;;;;;;;19.22;51.08;99831.72;4464813;32;34018;-87
2022/10/31 07:23:02;;;;;;;;;;;;;;;19.36;50.68;99821.06;4452019;32;33491;-87
2022/10/31 07:25:31;;;;;;;;;;;;;;;19.35;50.33;99824.56;4451930;32;33814;-86
2022/10/31 07:28:00;;;;;;;;;;;;;;;18.33;53.38;99840.44;4453574;32;34173;-87
2022/10/31 07:30:28;;;;;;;;;;;;;;;19.18;50.88;99846.66;4466290;32;34436;-87
2022/10/31 07:32:55;;;;;;;;;;;;;;;19.54;50.11;99835.72;4451611;32;33577;-86
2022/10/31 07:35:25;;;;;;;;;;;;;;;17.69;54.96;99848.69;4452138;32;34917;-87
2022/10/31 07:37:52;;;;;;;;;;;;;;;18.42;53.08;99844.78;4452957;32;34821;-86
2022/10/31 07:40:20;;;;;;;;;;;;;;;18.30;53.13;99844.88;4451911;32;34839;-87
2022/10/31 07:42:48;;;;;;;;;;;;;;;18.58;52.65;99842.88;4457471;32;32977;-82
2022/10/31 07:45:27;;;;;;;;;;;;;;;18.81;51.74;99837.44;4462927;32;34048;-86
2022/10/31 07:47:57;;;;;;;;;;;;;;;18.43;53.15;99842.13;4467206;32;34212;-87
2022/10/31 07:50:34;;;;;;;;;;;;;;;18.23;53.75;99833.53;4466700;32;32977;-86
2022/10/31 07:53:05;;;;;;;;;;;;;;;18.67;52.73;99837.53;4462541;32;32368;-86
2022/10/31 07:55:33;;;;;;;;;;;;;;;18.23;53.50;99833.53;4467463;32;33176;-86
2022/10/31 07:58:17;;;;;;;;;;;;;;;18.86;52.25;99828.59;4463446;32;34572;-84
2022/10/31 08:00:44;;;;;;;;;;;;;;;19.24;51.23;99823.81;4455714;32;33833;-85
2022/10/31 08:03:14;;;;;;;;;;;;;;;18.94;52.01;99823.28;4454941;32;32371;-83
2022/10/31 08:05:45;;;;;;;;;;;;;;;18.92;52.42;99833.81;4467773;32;34834;-87
2022/10/31 08:08:15;;;;;;;;;;;;;;;19.27;51.79;99837.78;4478935;32;33731;-87
2022/10/31 08:10:42;;;;;;;;;;;;;;;19.08;51.69;99836.28;4457960;32;34207;-84
2022/10/31 08:13:10;;;;;;;;;;;;;;;19.36;51.30;99836.84;4453989;32;34369;-83
2022/10/31 08:15:41;;;;;;;;;;;;;;;19.44;51.11;99838.47;4466579;32;32767;-87
2022/10/31 08:18:12;;;;;;;;;;;;;;;19.60;50.76;99835.63;4460155;32;35243;-85
2022/10/31 08:20:40;;;;;;;;;;;;;;;20.15;49.56;99830.50;4451957;32;34958;-86
2022/10/31 08:23:09;;;;;;;;;;;;;;;19.12;51.66;99845.84;4456196;32;33262;-87
2022/10/31 08:25:37;;;;;;;;;;;;;;;19.19;51.57;99845.78;4458019;32;34128;-92
2022/10/31 08:28:06;;;;;;;;;;;;;;;18.10;54.02;99845.00;4456702;32;34950;-90
2022/10/31 08:30:34;;;;;;;;;;;;;;;17.54;56.50;99851.41;4439948;32;34400;-87
2022/10/31 08:33:10;;;;;;;;;;;;;;;19.18;51.83;99853.69;4463827;32;32586;-86
2022/10/31 08:35:41;;;;;;;;;;;;;;;19.26;51.42;99843.09;4464830;32;34060;-94
2022/10/31 08:38:11;;;;;;;;;;;;;;;19.55;50.83;99837.47;4465088;32;34030;-84
2022/10/31 08:40:39;;;;;;;;;;;;;;;19.62;50.19;99840.03;4466379;32;34252;-85
2022/10/31 08:43:10;;;;;;;;;;;;;;;19.58;50.69;99834.78;4459650;32;33336;-84
2022/10/31 08:45:38;;;;;;;;;;;;;;;19.28;51.57;99839.56;4451266;32;33427;-86
2022/10/31 08:48:09;;;;;;;;;;;;;;;19.77;50.48;99828.41;4457610;32;34811;-87
2022/10/31 08:50:36;;;;;;;;;;;;;;;19.81;49.91;99827.50;4436001;32;35014;-84
2022/10/31 08:53:07;;;;;;;;;;;;;;;19.95;49.75;99836.94;4459269;32;34301;-84
2022/10/31 08:55:35;;;;;;;;;;;;;;;19.25;51.15;99842.22;4450551;32;35111;-85
2022/10/31 08:58:03;;;;;;;;;;;;;;;19.36;51.12;99845.59;4455711;32;34256;-84
2022/10/31 09:00:34;;;;;;;;;;;;;;;19.01;52.19;99845.97;4457377;32;34200;-85
2022/10/31 09:03:03;;;;;;;;;;;;;;;18.75;52.38;99843.59;4453814;32;33983;-85
2022/10/31 09:05:31;;;;;;;;;;;;;;;17.57;55.85;99846.16;4450601;32;34847;-84
2022/10/31 09:07:59;;;;;;;;;;;;;;;18.21;53.82;99846.66;4437331;32;35180;-86
2022/10/31 09:10:28;;;;;;;;;;;;;;;17.27;56.89;99853.25;4467572;32;32859;-84
2022/10/31 09:12:58;;;;;;;;;;;;;;;18.01;54.62;99858.19;4460476;32;33609;-84
2022/10/31 09:15:28;;;;;;;;;;;;;;;18.98;52.50;99853.00;4460198;32;32930;-84
2022/10/31 09:17:56;;;;;;;;;;;;;;;19.37;51.60;99855.22;4452713;32;34247;-84
2022/10/31 09:20:26;;;;;;;;;;;;;;;19.45;51.59;99860.38;4450658;32;34092;-85
2022/10/31 09:22:57;;;;;;;;;;;;;;;19.22;51.70;99857.16;4457652;32;34561;-86
2022/10/31 09:25:24;;;;;;;;;;;;;;;17.52;56.09;99857.53;4436080;32;34150;-86
2022/10/31 09:27:57;;;;;;;;;;;;;;;17.67;55.78;99861.84;4458405;32;35309;-86
2022/10/31 09:30:25;;;;;;;;;;;;;;;18.18;54.63;99856.31;4459418;32;34047;-87
2022/10/31 09:32:57;;;;;;;;;;;;;;;18.56;53.74;99857.75;4472615;32;34264;-86
2022/10/31 09:35:25;;;;;;;;;;;;;;;17.80;55.46;99859.16;4459429;32;33846;-86
2022/10/31 09:37:54;;;;;;;;;;;;;;;17.94;55.71;99857.34;4454442;32;34409;-84
2022/10/31 09:40:23;;;;;;;;;;;;;;;18.24;54.99;99858.91;4466878;32;34031;-87
2022/10/31 09:42:53;;;;;;;;;;;;;;;17.49;57.14;99865.41;4483962;32;34219;-84
2022/10/31 09:45:39;;;;;;;;;;;;;;;18.18;54.97;99866.81;4483893;32;33339;-88
2022/10/31 09:48:07;;;;;;;;;;;;;;;17.47;56.88;99866.31;4462589;32;35136;-84
2022/10/31 09:50:42;;;;;;;;;;;;;;;18.65;53.81;99868.19;4468178;32;34326;-85
2022/10/31 09:53:31;;;;;;;;;;;;;;;18.26;55.22;99861.50;4454639;32;33593;-85
2022/10/31 09:55:58;;;;;;;;;;;;;;;18.34;54.88;99860.59;4468273;32;34862;-85
2022/10/31 09:58:27;;;;;;;;;;;;;;;18.26;55.32;99858.88;4462379;32;34297;-85
2022/10/31 10:00:56;;;;;;;;;;;;;;;18.22;55.60;99851.06;4456563;32;33744;-89
2022/10/31 10:03:31;;;;;;;;;;;;;;;18.15;55.50;99858.97;4481777;32;34298;-84
2022/10/31 10:06:15;;;;;;;;;;;;;;;17.71;56.97;99860.06;4432883;32;34224;-85
2022/10/31 10:08:45;;;;;;;;;;;;;;;17.60;57.47;99861.88;4453118;32;33421;-84
2022/10/31 10:11:25;;;;;;;;;;;;;;;18.40;54.66;99857.88;4467869;32;34158;-85
2022/10/31 10:13:59;;;;;;;;;;;;;;;17.07;58.38;99862.94;4441162;32;32822;-87
2022/10/31 10:16:39;;;;;;;;;;;;;;;18.07;55.61;99847.63;4466759;32;34160;-86
2022/10/31 10:19:07;;;;;;;;;;;;;;;18.27;54.28;99847.53;4467765;32;34415;-89
2022/10/31 10:21:42;;;;;;;;;;;;;;;17.87;56.26;99859.13;4467881;32;35127;-88
2022/10/31 10:24:09;;;;;;;;;;;;;;;17.64;56.59;99853.97;4468038;32;33369;-86
2022/10/31 10:26:37;;;;;;;;;;;;;;;17.59;56.96;99847.03;4467466;32;34846;-88
2022/10/31 10:29:21;;;;;;;;;;;;;;;18.27;55.23;99847.53;4441165;32;34101;-87
2022/10/31 10:31:48;;;;;;;;;;;;;;;18.09;55.68;99838.00;4473595;32;34555;-87
2022/10/31 10:34:20;;;;;;;;;;;;;;;18.64;54.31;99850.72;4469466;32;34226;-87
2022/10/31 10:36:50;;;;;;;;;;;;;;;19.07;53.19;99847.69;4471728;32;34448;-87
2022/10/31 10:39:18;;;;;;;;;;;;;;;18.88;53.37;99845.25;4464759;32;34761;-88
2022/10/31 10:43:18;;;;;;;;;;;;;;;18.77;53.52;99849.72;4482767;32;34242;-87
2022/10/31 10:47:36;;;;;;;;;;;;;;;19.03;53.31;99840.72;4448129;32;33943;-86
2022/10/31 10:50:07;;;;;;;;;;;;;;;19.49;51.75;99835.78;4465187;32;34387;-88
2022/10/31 10:52:52;;;;;;;;;;;;;;;19.07;52.56;99845.91;4446633;32;34084;-85
2022/10/31 10:55:23;;;;;;;;;;;;;;;18.85;53.01;99840.00;4450735;32;33631;-87
2022/10/31 10:57:55;;;;;;;;;;;;;;;18.92;53.08;99839.06;4454532;32;33770;-85
2022/10/31 11:00:27;;;;;;;;;;;;;;;19.08;53.04;99841.53;4450600;32;34205;-86
2022/10/31 11:02:54;;;;;;;;;;;;;;;18.12;55.05;99830.12;4450663;32;34065;-87
2022/10/31 11:05:42;;;;;;;;;;;;;;;18.30;54.87;99843.13;4453326;32;33977;-85
2022/10/31 11:08:09;;;;;;;;;;;;;;;18.71;53.86;99837.53;4452128;32;33697;-85
2022/10/31 11:10:36;;;;;;;;;;;;;;;18.12;55.74;99830.12;4459274;32;33947;-87
2022/10/31 11:13:18;;;;;;;;;;;;;;;18.46;54.59;99835.97;4458833;32;33359;-88
2022/10/31 11:15:50;;;;;;;;;;;;;;;18.82;53.74;99840.03;4450531;32;33640;-86
2022/10/31 11:18:23;;;;;;;;;;;;;;;18.19;55.14;99826.56;4436030;32;34779;-88
2022/10/31 11:20:56;;;;;;;;;;;;;;;18.64;54.07;99830.56;4454399;32;33953;-86
2022/10/31 11:23:24;;;;;;;;;;;;;;;18.89;53.29;99830.34;4442979;32;35130;-86
2022/10/31 11:26:02;;;;;;;;;;;;;;;18.91;52.52;99818.94;4436502;32;33485;-87
2022/10/31 11:28:29;;;;;;;;;;;;;;;18.80;53.76;99826.06;4451790;32;33421;-86
2022/10/31 11:31:07;;;;;;;;;;;;;;;19.10;52.96;99824.88;4450662;32;35037;-87
2022/10/31 11:33:39;;;;;;;;;;;;;;;19.41;51.67;99817.47;4450921;32;33799;-86
2022/10/31 11:36:16;;;;;;;;;;;;;;;18.61;53.58;99822.72;4451699;32;34190;-85
2022/10/31 11:38:43;;;;;;;;;;;;;;;16.92;58.06;99822.81;4456267;32;34087;-86
2022/10/31 11:41:10;;;;;;;;;;;;;;;17.88;56.14;99821.56;4455222;32;35013;-85
2022/10/31 11:43:38;;;;;;;;;;;;;;;18.32;54.27;99824.72;4437884;32;34412;-86
2022/10/31 11:46:09;;;;;;;;;;;;;;;18.69;53.33;99818.25;4436345;32;34087;-85
2022/10/31 11:48:36;;;;;;;;;;;;;;;17.14;57.96;99820.13;4448344;32;33776;-85
2022/10/31 11:51:04;;;;;;;;;;;;;;;18.61;53.84;99820.09;4443769;32;33852;-84
2022/10/31 11:53:32;;;;;;;;;;;;;;;18.54;53.95;99817.53;4455032;32;35074;-86
2022/10/31 11:56:01;;;;;;;;;;;;;;;18.86;52.86;99822.47;4452883;32;33458;-87
2022/10/31 11:58:28;;;;;;;;;;;;;;;19.16;52.02;99816.03;4469357;32;34194;-84
2022/10/31 12:00:56;;;;;;;;;;;;;;;19.38;51.69;99814.00;4452435;32;34290;-85
2022/10/31 12:03:23;;;;;;;;;;;;;;;18.41;54.41;99822.91;4467189;32;34438;-84
2022/10/31 12:05:55;;;;;;;;;;;;;;;18.10;54.45;99817.00;4463396;32;33961;-84
2022/10/31 12:08:22;;;;;;;;;;;;;;;17.44;56.84;99813.88;4471258;32;35046;-84
2022/10/31 12:10:53;;;;;;;;;;;;;;;17.96;55.06;99819.75;4451334;32;34227;-87
2022/10/31 12:13:40;;;;;;;;;;;;;;;17.88;55.43;99808.44;4437835;32;34558;-86
2022/10/31 12:16:16;;;;;;;;;;;;;;;17.68;55.86;99816.38;4441761;32;33756;-87
2022/10/31 12:18:43;;;;;;;;;;;;;;;17.82;55.29;99811.09;4465673;32;34159;-87
2022/10/31 12:21:27;;;;;;;;;;;;;;;18.21;54.29;99814.28;4442847;32;35154;-88
2022/10/31 12:24:05;;;;;;;;;;;;;;;18.09;54.74;99811.78;4446986;32;35801;-87
2022/10/31 12:26:32;;;;;;;;;;;;;;;17.80;55.93;99812.84;4452689;32;35097;-86
2022/10/31 12:29:08;;;;;;;;;;;;;;;17.93;55.40;99806.62;4466904;32;34371;-87
2022/10/31 12:31:41;;;;;;;;;;;;;;;18.56;53.79;99806.12;4459085;32;34636;-86
2022/10/31 12:34:38;;;;;;;;;;;;;;;18.35;54.26;99812.44;4481682;32;34175;-87
2022/10/31 12:37:11;;;;;;;;;;;;;;;17.81;55.88;99804.09;4447778;32;33508;-88
2022/10/31 12:39:38;;;;;;;;;;;;;;;17.99;54.98;99801.38;4451255;32;34885;-88
2022/10/31 12:42:12;;;;;;;;;;;;;;;18.57;53.70;99801.75;4466112;32;34287;-88
2022/10/31 12:44:58;;;;;;;;;;;;;;;18.28;54.49;99810.75;4482373;32;34484;-88
2022/10/31 12:47:32;;;;;;;;;;;;;;;17.34;57.27;99809.56;4472600;32;33656;-88
2022/10/31 12:50:12;;;;;;;;;;;;;;;18.43;54.42;99810.63;4451084;32;34914;-87
2022/10/31 12:52:43;;;;;;;;;;;;;;;17.90;55.61;99803.16;4458292;32;35282;-87
2022/10/31 12:55:29;;;;;;;;;;;;;;;17.65;56.17;99802.41;4465763;32;34357;-87
2022/10/31 12:58:03;;;;;;;;;;;;;;;18.60;53.38;99809.56;4466002;32;34191;-86
2022/10/31 13:00:31;;;;;;;;;;;;;;;17.22;57.30;99810.47;4451659;32;33808;-87
2022/10/31 13:03:09;;;;;;;;;;;;;;;17.63;56.75;99801.56;4452728;32;35103;-85
2022/10/31 13:05:39;;;;;;;;;;;;;;;17.61;56.56;99800.69;4450278;32;34234;-85
2022/10/31 13:08:09;;;;;;;;;;;;;;;17.46;56.96;99804.25;4439067;32;33777;-86